Avoca, Nebraska
Current Conditions -  °F | °C
As of 5:15 AM on Sunday 21 Dec 2014 (Local Time) from KPMV Reporting Station
Haze Haze  
Wind Chill: 27°   Ceiling: 500
Heat Index: 36°   Visibility: 3mi
Dew Point: 35°   Wind: 14mph
Humidity: 96%   Direction: 170°S
Pressure: 29.93"   Gusts: NA
Location:  40.8°N, 96.12°W
Report Text: KPMV 211115Z AUTO 17012KT 3SM BR OVC005 02/02 A2993 RMK AO2 T00210015
Loading
Personal Weather Stations






























Interactive Weather Map New forecast layout! Learn more

10-Day Weather Forecast

Advertisements
Track Severe Weather on mobile